Time;durP1;ratioP1;P1;durP2;ratioP2;P2;SDS_P1;SDS_P2;PMS_P1;PMS_P2;Temp;Humidity;BMP_temperature;BMP_pressure;BME280_temperature;BME280_humidity;BME280_pressure;Samples;Min_cycle;Max_cycle;Signal;HPM_P1;HPM_P2
2023/01/05 00:01:28;;;;;;;0.50;0.40;;;;;;;;;;5118557;28;20485;-61
2023/01/05 00:03:57;;;;;;;0.30;0.30;;;;;;;;;;5118888;28;20199;-61
2023/01/05 00:06:24;;;;;;;0.50;0.50;;;;;;;;;;5118975;28;20279;-61
2023/01/05 00:08:52;;;;;;;0.45;0.35;;;;;;;;;;5117763;28;20203;-61
2023/01/05 00:22:33;;;;;;;0.40;0.40;;;;;;;;;;5118314;28;20193;-61
2023/01/05 00:25:01;;;;;;;0.40;0.30;;;;;;;;;;5118133;28;20264;-61
2023/01/05 00:27:29;;;;;;;0.40;0.40;;;;;;;;;;5118097;28;20267;-61
2023/01/05 00:29:57;;;;;;;0.30;0.30;;;;;;;;;;5118443;28;20210;-61
2023/01/05 00:32:25;;;;;;;0.40;0.40;;;;;;;;;;5118037;28;20210;-61
2023/01/05 00:34:55;;;;;;;0.40;0.40;;;;;;;;;;5118375;28;20233;-61
2023/01/05 00:37:23;;;;;;;0.40;0.40;;;;;;;;;;5118332;28;20213;-60
2023/01/05 00:39:51;;;;;;;0.45;0.45;;;;;;;;;;5118255;28;20203;-61
2023/01/05 00:42:19;;;;;;;0.57;0.40;;;;;;;;;;5118664;28;20253;-61
2023/01/05 00:44:46;;;;;;;0.47;0.25;;;;;;;;;;5118285;28;20302;-61
2023/01/05 00:47:14;;;;;;;0.40;0.40;;;;;;;;;;5117831;28;20371;-62
2023/01/05 00:49:42;;;;;;;0.63;0.30;;;;;;;;;;5118398;28;20518;-61
2023/01/05 00:52:11;;;;;;;0.70;0.40;;;;;;;;;;5117823;28;20297;-61
2023/01/05 00:54:39;;;;;;;0.47;0.35;;;;;;;;;;5118110;28;20317;-61
2023/01/05 00:57:07;;;;;;;0.40;0.40;;;;;;;;;;5117969;28;20207;-61
2023/01/05 00:59:35;;;;;;;0.43;0.40;;;;;;;;;;5117753;28;20727;-60
2023/01/05 01:02:02;;;;;;;0.50;0.40;;;;;;;;;;5117842;28;20210;-61
2023/01/05 01:04:31;;;;;;;0.40;0.32;;;;;;;;;;5117794;28;20199;-61
2023/01/05 01:06:59;;;;;;;0.32;0.30;;;;;;;;;;5118096;28;20238;-61
2023/01/05 01:09:28;;;;;;;0.50;0.30;;;;;;;;;;5118156;28;20233;-61
2023/01/05 01:11:56;;;;;;;0.40;0.20;;;;;;;;;;5117810;28;20213;-60
2023/01/05 01:14:24;;;;;;;0.50;0.40;;;;;;;;;;5117719;28;20318;-61
2023/01/05 01:16:52;;;;;;;0.50;0.30;;;;;;;;;;5117648;28;20203;-61
2023/01/05 01:19:20;;;;;;;0.30;0.30;;;;;;;;;;5117132;28;20214;-61
2023/01/05 01:21:49;;;;;;;0.43;0.35;;;;;;;;;;5117732;28;20209;-61
2023/01/05 01:24:17;;;;;;;0.30;0.30;;;;;;;;;;5117953;28;20207;-61
2023/01/05 01:26:46;;;;;;;0.60;0.38;;;;;;;;;;5117977;28;20218;-61
2023/01/05 01:29:16;;;;;;;0.50;0.40;;;;;;;;;;5117772;28;20203;-61
2023/01/05 01:31:44;;;;;;;0.40;0.40;;;;;;;;;;5117639;28;20210;-61
2023/01/05 01:34:11;;;;;;;0.40;0.30;;;;;;;;;;5117660;28;20230;-61
2023/01/05 01:36:39;;;;;;;0.57;0.38;;;;;;;;;;5118011;28;20639;-61
2023/01/05 01:39:07;;;;;;;0.30;0.20;;;;;;;;;;5117455;28;20248;-61
2023/01/05 01:41:35;;;;;;;0.43;0.40;;;;;;;;;;5117290;28;20289;-60
2023/01/05 01:44:24;;;;;;;0.30;0.30;;;;;;;;;;5117568;28;20202;-61
2023/01/05 01:46:52;;;;;;;0.30;0.30;;;;;;;;;;5117618;28;20238;-61
2023/01/05 01:49:20;;;;;;;0.50;0.40;;;;;;;;;;5117681;28;20674;-60
2023/01/05 01:51:49;;;;;;;0.20;0.20;;;;;;;;;;5116905;28;20238;-61
2023/01/05 01:54:18;;;;;;;0.55;0.38;;;;;;;;;;5117817;28;20203;-61
2023/01/05 01:56:51;;;;;;;0.40;0.20;;;;;;;;;;5117226;28;20214;-61
2023/01/05 01:59:21;;;;;;;0.30;0.30;;;;;;;;;;5116803;28;20242;-61
2023/01/05 02:01:50;;;;;;;0.30;0.30;;;;;;;;;;5117459;28;20207;-61
2023/01/05 02:04:17;;;;;;;0.50;0.35;;;;;;;;;;5117439;28;20203;-61
2023/01/05 02:06:45;;;;;;;0.60;0.50;;;;;;;;;;5117558;28;20249;-61
2023/01/05 02:09:13;;;;;;;0.30;0.30;;;;;;;;;;5117023;28;20214;-61
2023/01/05 02:11:44;;;;;;;0.40;0.30;;;;;;;;;;5117075;28;20298;-61
2023/01/05 02:14:18;;;;;;;0.28;0.28;;;;;;;;;;5117325;28;20614;-61
2023/01/05 02:16:52;;;;;;;0.73;0.40;;;;;;;;;;5117361;28;20313;-61
2023/01/05 02:19:35;;;;;;;0.50;0.30;;;;;;;;;;5117207;28;20203;-61
2023/01/05 02:22:11;;;;;;;0.40;0.30;;;;;;;;;;5117025;28;20293;-62
2023/01/05 02:24:50;;;;;;;0.30;0.20;;;;;;;;;;5117261;28;20205;-61
2023/01/05 02:27:37;;;;;;;0.40;0.30;;;;;;;;;;5117153;28;20264;-61
2023/01/05 02:30:16;;;;;;;0.45;0.32;;;;;;;;;;5117210;28;20203;-61
2023/01/05 02:32:47;;;;;;;0.30;0.30;;;;;;;;;;5119708;28;20203;-60
2023/01/05 02:35:22;;;;;;;0.40;0.30;;;;;;;;;;5120789;28;20625;-62
2023/01/05 02:37:54;;;;;;;0.38;0.22;;;;;;;;;;5120578;28;20203;-61
2023/01/05 02:40:27;;;;;;;0.30;0.30;;;;;;;;;;5120806;28;20571;-61
2023/01/05 02:42:56;;;;;;;0.20;0.20;;;;;;;;;;5113912;28;20200;-60
2023/01/05 02:45:24;;;;;;;0.20;0.15;;;;;;;;;;5110528;28;20213;-61
2023/01/05 02:47:54;;;;;;;0.43;0.25;;;;;;;;;;5120649;28;20249;-61
2023/01/05 02:50:23;;;;;;;0.32;0.32;;;;;;;;;;5120119;28;20425;-60
2023/01/05 02:52:53;;;;;;;0.50;0.30;;;;;;;;;;5120331;28;20203;-61
2023/01/05 02:55:23;;;;;;;0.30;0.30;;;;;;;;;;5120434;28;20222;-61
2023/01/05 02:57:55;;;;;;;0.88;0.30;;;;;;;;;;5120729;28;20253;-61
2023/01/05 03:00:26;;;;;;;0.40;0.20;;;;;;;;;;5120368;28;20203;-61
2023/01/05 03:02:56;;;;;;;0.38;0.30;;;;;;;;;;5120054;28;20203;-60
2023/01/05 03:05:26;;;;;;;0.30;0.20;;;;;;;;;;5119930;28;20203;-61
2023/01/05 03:08:05;;;;;;;0.30;0.30;;;;;;;;;;5120193;28;20207;-60
2023/01/05 03:16:07;;;;;;;0.30;0.30;;;;;;;;;;5119924;28;20617;-60
2023/01/05 03:19:34;;;;;;;0.30;0.20;;;;;;;;;;5119976;28;20559;-61
2023/01/05 03:21:25;;;;;;;0.40;0.22;;;;;;;;;;5119938;28;20214;-61
2023/01/05 03:37:54;;;;;;;0.30;0.25;;;;;;;;;;5119433;28;20198;-61
2023/01/05 03:40:25;;;;;;;0.50;0.30;;;;;;;;;;5119499;28;20202;-61
2023/01/05 03:42:53;;;;;;;0.30;0.30;;;;;;;;;;5119258;28;20290;-61
2023/01/05 03:45:22;;;;;;;0.45;0.45;;;;;;;;;;5119242;28;20199;-61
2023/01/05 03:47:50;;;;;;;0.20;0.20;;;;;;;;;;5119295;28;20239;-61
2023/01/05 03:50:19;;;;;;;0.28;0.22;;;;;;;;;;5119468;28;20203;-61
2023/01/05 03:52:47;;;;;;;0.20;0.20;;;;;;;;;;5119378;28;20203;-61
2023/01/05 03:55:14;;;;;;;0.43;0.20;;;;;;;;;;5118631;28;20227;-61
2023/01/05 03:57:42;;;;;;;0.55;0.30;;;;;;;;;;5119256;28;20297;-61
2023/01/05 04:00:11;;;;;;;0.20;0.20;;;;;;;;;;5118666;28;20203;-61
2023/01/05 04:02:38;;;;;;;0.28;0.28;;;;;;;;;;5118666;28;20293;-61
2023/01/05 04:05:06;;;;;;;0.20;0.20;;;;;;;;;;5118910;28;20458;-61
2023/01/05 04:07:35;;;;;;;0.40;0.40;;;;;;;;;;5118402;28;20238;-61
2023/01/05 04:10:03;;;;;;;0.30;0.20;;;;;;;;;;5118339;28;20210;-61
2023/01/05 04:12:31;;;;;;;0.45;0.30;;;;;;;;;;5118511;28;20203;-61
2023/01/05 04:14:59;;;;;;;0.60;0.20;;;;;;;;;;5118295;28;20258;-61
2023/01/05 04:17:26;;;;;;;0.30;0.30;;;;;;;;;;5118635;28;20674;-61
2023/01/05 04:19:54;;;;;;;0.30;0.20;;;;;;;;;;5118187;28;20199;-61
2023/01/05 04:22:22;;;;;;;0.50;0.40;;;;;;;;;;5118711;28;20202;-60
2023/01/05 04:24:51;;;;;;;0.75;0.30;;;;;;;;;;5118191;28;20224;-60
2023/01/05 04:27:19;;;;;;;0.70;0.30;;;;;;;;;;5118021;28;20206;-61
2023/01/05 04:29:47;;;;;;;0.40;0.30;;;;;;;;;;5118225;28;20202;-61
2023/01/05 04:32:15;;;;;;;0.60;0.40;;;;;;;;;;5118324;28;20203;-62
2023/01/05 04:34:42;;;;;;;0.38;0.30;;;;;;;;;;5118021;28;20211;-61
2023/01/05 04:37:10;;;;;;;0.40;0.40;;;;;;;;;;5118075;28;20613;-62
2023/01/05 04:39:38;;;;;;;0.50;0.40;;;;;;;;;;5118223;28;20207;-61
2023/01/05 04:42:07;;;;;;;0.35;0.32;;;;;;;;;;5117455;28;20497;-61
2023/01/05 04:44:35;;;;;;;0.60;0.32;;;;;;;;;;5117551;28;20194;-62
2023/01/05 04:47:02;;;;;;;0.50;0.35;;;;;;;;;;5117510;28;20330;-60
2023/01/05 04:49:30;;;;;;;0.52;0.40;;;;;;;;;;5117527;28;20309;-61
2023/01/05 04:51:58;;;;;;;0.63;0.30;;;;;;;;;;5117731;28;20562;-61
2023/01/05 04:54:26;;;;;;;0.93;0.40;;;;;;;;;;5116677;28;20203;-60
2023/01/05 04:56:54;;;;;;;0.43;0.40;;;;;;;;;;5117693;28;20598;-61
2023/01/05 04:59:23;;;;;;;0.50;0.43;;;;;;;;;;5117460;28;20586;-61
2023/01/05 05:01:50;;;;;;;0.40;0.30;;;;;;;;;;5117856;28;20634;-61
2023/01/05 05:04:18;;;;;;;1.15;0.50;;;;;;;;;;5118003;28;20486;-61
2023/01/05 05:06:45;;;;;;;0.50;0.40;;;;;;;;;;5111867;28;20227;-61
2023/01/05 05:09:12;;;;;;;0.47;0.35;;;;;;;;;;5112724;28;20217;-61
2023/01/05 05:11:40;;;;;;;0.30;0.30;;;;;;;;;;5105962;28;20211;-60
2023/01/05 05:14:07;;;;;;;0.40;0.40;;;;;;;;;;5096656;28;20208;-61
2023/01/05 05:16:36;;;;;;;0.88;0.50;;;;;;;;;;5097186;28;20492;-61
2023/01/05 05:19:03;;;;;;;0.52;0.32;;;;;;;;;;5097635;28;20214;-61
2023/01/05 05:21:31;;;;;;;0.40;0.40;;;;;;;;;;5097177;28;20204;-61
2023/01/05 05:23:58;;;;;;;0.40;0.30;;;;;;;;;;5096992;28;20254;-61
2023/01/05 05:26:26;;;;;;;0.30;0.30;;;;;;;;;;5096076;28;20498;-61
2023/01/05 05:28:53;;;;;;;0.57;0.50;;;;;;;;;;5096378;28;20302;-61
2023/01/05 05:31:21;;;;;;;0.52;0.40;;;;;;;;;;5096302;28;20204;-61
2023/01/05 05:33:50;;;;;;;1.58;0.40;;;;;;;;;;5095372;28;20654;-60
2023/01/05 05:36:17;;;;;;;1.83;0.60;;;;;;;;;;5095611;28;20219;-61
2023/01/05 05:38:45;;;;;;;0.75;0.47;;;;;;;;;;5096452;28;20211;-60
2023/01/05 05:41:12;;;;;;;0.60;0.40;;;;;;;;;;5095361;28;20203;-61
2023/01/05 05:43:39;;;;;;;0.82;0.32;;;;;;;;;;5095518;28;20703;-61
2023/01/05 05:46:07;;;;;;;0.57;0.30;;;;;;;;;;5096513;28;20727;-60
2023/01/05 05:48:34;;;;;;;0.60;0.38;;;;;;;;;;5114854;28;20231;-61
2023/01/05 05:51:03;;;;;;;0.60;0.38;;;;;;;;;;5115769;28;20222;-60
2023/01/05 05:53:31;;;;;;;0.40;0.30;;;;;;;;;;5116011;28;20283;-61
2023/01/05 05:55:58;;;;;;;0.80;0.40;;;;;;;;;;5115852;28;20322;-61
2023/01/05 05:58:25;;;;;;;0.90;0.35;;;;;;;;;;5115228;28;20233;-62
2023/01/05 06:00:57;;;;;;;0.90;0.50;;;;;;;;;;5114827;28;20298;-60
2023/01/05 06:03:25;;;;;;;0.47;0.38;;;;;;;;;;5114658;28;20578;-61
2023/01/05 06:05:52;;;;;;;1.60;0.50;;;;;;;;;;5116260;28;20650;-61
2023/01/05 06:08:22;;;;;;;1.25;0.40;;;;;;;;;;5118638;28;20581;-61
2023/01/05 06:10:50;;;;;;;0.47;0.40;;;;;;;;;;5118500;28;20221;-61
2023/01/05 06:13:18;;;;;;;0.57;0.40;;;;;;;;;;5118387;28;20213;-61
2023/01/05 06:15:46;;;;;;;1.10;0.57;;;;;;;;;;5117884;28;20325;-61
2023/01/05 06:18:13;;;;;;;1.60;0.60;;;;;;;;;;5117131;28;20242;-61
2023/01/05 06:20:41;;;;;;;1.83;0.80;;;;;;;;;;5116525;28;20211;-61
2023/01/05 06:23:08;;;;;;;1.30;0.65;;;;;;;;;;5117872;28;20284;-61
2023/01/05 06:25:37;;;;;;;2.42;0.73;;;;;;;;;;5118217;28;20203;-61
2023/01/05 06:28:04;;;;;;;1.92;0.90;;;;;;;;;;5118149;28;20605;-61
2023/01/05 06:30:32;;;;;;;1.50;0.85;;;;;;;;;;5118632;28;20213;-61
2023/01/05 06:32:59;;;;;;;3.05;1.20;;;;;;;;;;5117981;28;20475;-61
2023/01/05 06:35:27;;;;;;;2.33;0.80;;;;;;;;;;5117486;28;20285;-61
2023/01/05 06:37:54;;;;;;;1.55;0.80;;;;;;;;;;5117676;28;20245;-61
2023/01/05 06:40:22;;;;;;;2.85;1.10;;;;;;;;;;5117828;28;20571;-61
2023/01/05 06:42:51;;;;;;;2.35;1.10;;;;;;;;;;5117243;28;20213;-61
2023/01/05 06:45:18;;;;;;;3.50;1.30;;;;;;;;;;5117767;28;20234;-60
2023/01/05 06:47:46;;;;;;;2.90;1.20;;;;;;;;;;5117293;28;20259;-61
2023/01/05 06:50:13;;;;;;;4.80;1.20;;;;;;;;;;5117187;28;20775;-61
2023/01/05 06:52:40;;;;;;;2.33;1.00;;;;;;;;;;5117418;28;20203;-60
2023/01/05 06:55:09;;;;;;;2.67;1.30;;;;;;;;;;5117566;28;20203;-61
2023/01/05 06:57:36;;;;;;;3.22;1.05;;;;;;;;;;5117957;28;20745;-61
2023/01/05 07:00:06;;;;;;;3.08;1.30;;;;;;;;;;5118317;28;20290;-61
2023/01/05 07:02:35;;;;;;;3.15;1.35;;;;;;;;;;5117953;28;20281;-61
2023/01/05 07:05:03;;;;;;;3.22;1.38;;;;;;;;;;5117146;28;20245;-61
2023/01/05 07:07:30;;;;;;;3.30;1.30;;;;;;;;;;5116955;28;20586;-61
2023/01/05 07:09:57;;;;;;;3.92;1.30;;;;;;;;;;5117466;28;20305;-60
2023/01/05 07:12:25;;;;;;;2.90;1.25;;;;;;;;;;5117835;28;20302;-61
2023/01/05 07:14:52;;;;;;;3.13;1.15;;;;;;;;;;5117712;28;20203;-61
2023/01/05 07:17:21;;;;;;;2.92;1.30;;;;;;;;;;5116804;28;20222;-61
2023/01/05 07:19:49;;;;;;;2.35;1.45;;;;;;;;;;5117227;28;20289;-60
2023/01/05 07:22:16;;;;;;;3.05;1.30;;;;;;;;;;5117013;28;20809;-61
2023/01/05 07:24:44;;;;;;;2.45;1.23;;;;;;;;;;5118186;28;20282;-62
2023/01/05 07:27:11;;;;;;;2.70;1.17;;;;;;;;;;5117222;28;20237;-61
2023/01/05 07:29:39;;;;;;;2.33;1.15;;;;;;;;;;5117672;28;20301;-61
2023/01/05 07:32:06;;;;;;;1.95;1.10;;;;;;;;;;5117376;28;20305;-61
2023/01/05 07:34:35;;;;;;;4.20;1.58;;;;;;;;;;5113682;28;20195;-62
2023/01/05 07:37:02;;;;;;;5.10;1.10;;;;;;;;;;5114488;28;20259;-61
2023/01/05 07:39:30;;;;;;;3.03;1.38;;;;;;;;;;5096466;28;20581;-61
2023/01/05 07:41:57;;;;;;;3.08;1.27;;;;;;;;;;5097272;28;20195;-61
2023/01/05 07:44:24;;;;;;;2.58;1.15;;;;;;;;;;5117438;28;20614;-61
2023/01/05 07:46:52;;;;;;;2.47;1.33;;;;;;;;;;5116303;28;20801;-61
2023/01/05 07:49:20;;;;;;;2.22;1.10;;;;;;;;;;5117703;28;20560;-61
2023/01/05 07:51:49;;;;;;;3.03;1.38;;;;;;;;;;5116048;28;20195;-61
2023/01/05 07:54:16;;;;;;;2.30;1.30;;;;;;;;;;5116510;28;20214;-60
2023/01/05 07:56:43;;;;;;;3.03;1.20;;;;;;;;;;5116906;28;20229;-62
2023/01/05 07:59:11;;;;;;;2.55;1.33;;;;;;;;;;5116591;28;20198;-61
2023/01/05 08:01:38;;;;;;;2.70;1.27;;;;;;;;;;5115354;28;20301;-61
2023/01/05 08:04:06;;;;;;;3.28;1.38;;;;;;;;;;5116338;28;20298;-61
2023/01/05 08:06:34;;;;;;;4.93;1.23;;;;;;;;;;5116367;28;20562;-60
2023/01/05 08:10:27;;;;;;;4.10;1.08;;;;;;;;;;5116576;28;20728;-60
2023/01/05 08:11:51;;;;;;;3.35;1.00;;;;;;;;;;5116188;28;20207;-60
2023/01/05 08:14:18;;;;;;;3.15;1.27;;;;;;;;;;5115626;28;20194;-61
2023/01/05 08:16:46;;;;;;;2.13;1.02;;;;;;;;;;5115255;28;20313;-61
2023/01/05 08:19:13;;;;;;;1.42;1.00;;;;;;;;;;5114949;28;20306;-61
2023/01/05 08:21:41;;;;;;;1.08;0.90;;;;;;;;;;5115259;28;20310;-60
2023/01/05 08:24:10;;;;;;;1.90;1.33;;;;;;;;;;5116085;28;20293;-61
2023/01/05 08:26:37;;;;;;;2.40;1.35;;;;;;;;;;5116302;28;20202;-60
2023/01/05 08:29:05;;;;;;;2.33;1.13;;;;;;;;;;5114447;28;20203;-61
2023/01/05 08:31:36;;;;;;;2.63;0.98;;;;;;;;;;5115330;28;20285;-61
2023/01/05 08:34:04;;;;;;;2.10;1.08;;;;;;;;;;5115699;28;20538;-61
2023/01/05 08:36:31;;;;;;;1.80;0.98;;;;;;;;;;5115307;28;20708;-61
2023/01/05 08:39:00;;;;;;;2.15;1.10;;;;;;;;;;5116010;28;20226;-61
2023/01/05 08:41:31;;;;;;;3.20;1.33;;;;;;;;;;5115865;28;20259;-60
2023/01/05 08:43:59;;;;;;;2.33;1.00;;;;;;;;;;5115558;28;20674;-60
2023/01/05 08:46:28;;;;;;;2.38;0.80;;;;;;;;;;5114992;28;20206;-61
2023/01/05 08:48:55;;;;;;;1.83;1.02;;;;;;;;;;5115304;28;20664;-60
2023/01/05 08:51:23;;;;;;;2.03;0.85;;;;;;;;;;5115824;28;20294;-61
2023/01/05 08:53:51;;;;;;;3.17;1.17;;;;;;;;;;5115578;28;20571;-61
2023/01/05 08:56:18;;;;;;;3.05;1.27;;;;;;;;;;5115986;28;20290;-61
2023/01/05 08:58:47;;;;;;;2.08;1.10;;;;;;;;;;5116031;28;20203;-61
2023/01/05 09:01:16;;;;;;;2.22;1.00;;;;;;;;;;5115822;28;20696;-61
2023/01/05 09:03:43;;;;;;;2.03;1.15;;;;;;;;;;5115452;28;20297;-60
2023/01/05 09:06:12;;;;;;;2.63;1.08;;;;;;;;;;5115910;28;20301;-61
2023/01/05 09:08:40;;;;;;;2.22;1.05;;;;;;;;;;5115340;28;20302;-61
2023/01/05 09:11:08;;;;;;;2.22;1.00;;;;;;;;;;5114952;28;20295;-61
2023/01/05 09:13:36;;;;;;;2.08;1.00;;;;;;;;;;5114694;28;20238;-61
2023/01/05 09:16:09;;;;;;;1.92;0.90;;;;;;;;;;5115154;28;20209;-61
2023/01/05 09:18:37;;;;;;;1.95;1.00;;;;;;;;;;5115724;28;20466;-61
2023/01/05 09:21:05;;;;;;;2.83;1.10;;;;;;;;;;5115668;28;20205;-61
2023/01/05 09:23:32;;;;;;;2.63;1.00;;;;;;;;;;5115446;28;20202;-61
2023/01/05 09:26:00;;;;;;;1.80;0.80;;;;;;;;;;5114934;28;20242;-61
2023/01/05 09:28:28;;;;;;;2.42;1.00;;;;;;;;;;5115395;28;20199;-61
2023/01/05 09:30:55;;;;;;;2.45;1.20;;;;;;;;;;5114390;28;20202;-61
2023/01/05 09:33:24;;;;;;;2.10;1.05;;;;;;;;;;5114726;28;20234;-60
2023/01/05 09:35:55;;;;;;;2.20;1.08;;;;;;;;;;5115500;28;20260;-61
2023/01/05 09:38:23;;;;;;;2.40;1.08;;;;;;;;;;5115215;28;20325;-61
2023/01/05 09:40:51;;;;;;;1.42;0.90;;;;;;;;;;5116437;28;20202;-60
2023/01/05 09:43:21;;;;;;;1.70;1.05;;;;;;;;;;5119193;28;20195;-61
2023/01/05 09:45:49;;;;;;;2.08;0.90;;;;;;;;;;5119244;28;20655;-61
2023/01/05 09:48:18;;;;;;;1.52;0.90;;;;;;;;;;5119379;28;20326;-60
2023/01/05 09:50:47;;;;;;;2.97;1.00;;;;;;;;;;5118093;28;20204;-61
2023/01/05 09:53:15;;;;;;;2.28;1.20;;;;;;;;;;5118234;28;20598;-60
2023/01/05 09:55:44;;;;;;;1.38;0.80;;;;;;;;;;5118835;28;20214;-61
2023/01/05 09:58:15;;;;;;;0.90;0.70;;;;;;;;;;5118480;28;20223;-61
2023/01/05 10:00:47;;;;;;;2.22;1.05;;;;;;;;;;5118375;28;20210;-61
2023/01/05 10:03:16;;;;;;;0.80;0.70;;;;;;;;;;5117654;28;20294;-61
2023/01/05 10:05:44;;;;;;;1.25;0.70;;;;;;;;;;5118554;28;20195;-61
2023/01/05 10:08:16;;;;;;;1.33;0.70;;;;;;;;;;5118743;28;20605;-61
2023/01/05 10:13:01;;;;;;;2.42;1.00;;;;;;;;;;5118569;28;20286;-61
2023/01/05 10:13:33;;;;;;;1.80;0.70;;;;;;;;;;5118675;28;20226;-61
2023/01/05 10:16:00;;;;;;;1.60;0.77;;;;;;;;;;5118409;28;20600;-61
2023/01/05 10:18:28;;;;;;;1.55;0.85;;;;;;;;;;5116864;28;20238;-61
2023/01/05 10:21:02;;;;;;;1.23;0.70;;;;;;;;;;5117193;28;20503;-61
2023/01/05 10:23:44;;;;;;;1.40;0.80;;;;;;;;;;5117650;28;20202;-61
2023/01/05 10:26:15;;;;;;;0.82;0.60;;;;;;;;;;5116396;28;20504;-61
2023/01/05 10:28:47;;;;;;;1.92;0.90;;;;;;;;;;5108783;28;20608;-60
2023/01/05 10:31:20;;;;;;;1.33;0.88;;;;;;;;;;5117608;28;20209;-61
2023/01/05 10:33:49;;;;;;;1.73;1.05;;;;;;;;;;5118002;28;20213;-62
2023/01/05 10:36:34;;;;;;;1.17;0.50;;;;;;;;;;5117002;28;20218;-61
2023/01/05 10:39:10;;;;;;;1.45;0.80;;;;;;;;;;5117268;28;20231;-61
2023/01/05 10:41:40;;;;;;;0.90;0.68;;;;;;;;;;5117107;28;20289;-62
2023/01/05 10:44:13;;;;;;;1.80;0.80;;;;;;;;;;5117447;28;20199;-61
2023/01/05 10:46:43;;;;;;;1.45;0.75;;;;;;;;;;5116860;28;20202;-61
2023/01/05 10:49:17;;;;;;;2.00;0.98;;;;;;;;;;5116865;28;20297;-61
2023/01/05 10:51:44;;;;;;;0.95;0.60;;;;;;;;;;5116177;28;20195;-61
2023/01/05 10:54:21;;;;;;;1.55;0.85;;;;;;;;;;5117303;28;20232;-61
2023/01/05 10:56:48;;;;;;;1.48;0.80;;;;;;;;;;5117277;28;20209;-61
2023/01/05 10:59:16;;;;;;;0.98;0.70;;;;;;;;;;5116796;28;20213;-61
2023/01/05 11:01:45;;;;;;;1.65;0.80;;;;;;;;;;5117443;28;20284;-62
2023/01/05 11:04:14;;;;;;;0.73;0.50;;;;;;;;;;5116996;28;20257;-61
2023/01/05 11:06:42;;;;;;;1.67;0.70;;;;;;;;;;5116126;28;20195;-61
2023/01/05 11:09:16;;;;;;;1.10;0.68;;;;;;;;;;5116723;28;20306;-61
2023/01/05 11:11:53;;;;;;;1.02;0.60;;;;;;;;;;5116877;28;20586;-60
2023/01/05 11:14:21;;;;;;;1.92;0.77;;;;;;;;;;5116112;28;20199;-61
2023/01/05 11:16:50;;;;;;;1.48;0.63;;;;;;;;;;5116447;28;20227;-61
2023/01/05 11:19:18;;;;;;;0.80;0.60;;;;;;;;;;5116641;28;20859;-62
2023/01/05 11:21:46;;;;;;;0.90;0.80;;;;;;;;;;5116284;28;20203;-61
2023/01/05 11:24:27;;;;;;;1.45;0.60;;;;;;;;;;5116126;28;20258;-61
2023/01/05 11:26:57;;;;;;;0.93;0.60;;;;;;;;;;5116133;28;20205;-61
2023/01/05 11:29:25;;;;;;;1.23;0.52;;;;;;;;;;5116121;28;20210;-61
2023/01/05 11:31:54;;;;;;;1.05;0.60;;;;;;;;;;5115742;28;20213;-61
2023/01/05 11:34:27;;;;;;;0.98;0.70;;;;;;;;;;5115522;28;20282;-61
2023/01/05 11:36:55;;;;;;;0.55;0.50;;;;;;;;;;5115969;28;20878;-61
2023/01/05 11:39:27;;;;;;;1.13;0.60;;;;;;;;;;5116300;28;20194;-62
2023/01/05 11:42:08;;;;;;;0.70;0.52;;;;;;;;;;5116089;28;20593;-61
2023/01/05 11:44:35;;;;;;;0.55;0.43;;;;;;;;;;5115422;28;20252;-61
2023/01/05 11:47:03;;;;;;;0.95;0.60;;;;;;;;;;5116893;28;20539;-61
2023/01/05 11:49:30;;;;;;;0.95;0.60;;;;;;;;;;5115819;28;20195;-61
2023/01/05 11:51:57;;;;;;;1.10;0.60;;;;;;;;;;5115685;28;20736;-61
2023/01/05 11:54:29;;;;;;;0.70;0.52;;;;;;;;;;5115811;28;20209;-61
2023/01/05 11:57:13;;;;;;;0.80;0.60;;;;;;;;;;5115896;28;20209;-61
2023/01/05 11:59:41;;;;;;;0.70;0.40;;;;;;;;;;5115142;28;20289;-61
2023/01/05 12:02:19;;;;;;;0.70;0.60;;;;;;;;;;5115627;28;20201;-61
2023/01/05 12:05:01;;;;;;;0.73;0.60;;;;;;;;;;5115100;28;20205;-62
2023/01/05 12:07:32;;;;;;;0.90;0.50;;;;;;;;;;5116075;28;20297;-61
2023/01/05 12:10:06;;;;;;;1.05;0.60;;;;;;;;;;5115666;28;20649;-61
2023/01/05 12:12:40;;;;;;;0.52;0.40;;;;;;;;;;5115903;28;20297;-61
2023/01/05 12:15:26;;;;;;;0.65;0.40;;;;;;;;;;5114579;28;20233;-61
2023/01/05 12:17:58;;;;;;;1.08;0.60;;;;;;;;;;5114127;28;20221;-61
2023/01/05 12:20:40;;;;;;;0.73;0.40;;;;;;;;;;5114436;28;20297;-61
2023/01/05 12:23:23;;;;;;;0.50;0.43;;;;;;;;;;5114441;28;20301;-61
2023/01/05 12:25:54;;;;;;;1.77;0.70;;;;;;;;;;5059391;28;20229;-61
2023/01/05 12:28:40;;;;;;;0.40;0.40;;;;;;;;;;5114590;28;20583;-61
2023/01/05 12:31:17;;;;;;;0.57;0.50;;;;;;;;;;5113368;28;20306;-61
2023/01/05 12:34:00;;;;;;;1.17;0.70;;;;;;;;;;5115374;28;20626;-61
2023/01/05 12:36:35;;;;;;;0.60;0.43;;;;;;;;;;5114163;28;20209;-61
2023/01/05 12:39:21;;;;;;;0.77;0.57;;;;;;;;;;5113721;28;20218;-61
2023/01/05 12:41:56;;;;;;;0.63;0.47;;;;;;;;;;5113865;28;20210;-61
2023/01/05 12:44:50;;;;;;;0.50;0.40;;;;;;;;;;5114142;28;20194;-61
2023/01/05 12:47:27;;;;;;;0.68;0.40;;;;;;;;;;5055758;28;20638;-60
2023/01/05 12:49:58;;;;;;;0.60;0.40;;;;;;;;;;5114155;28;20327;-61
2023/01/05 12:52:31;;;;;;;0.50;0.50;;;;;;;;;;5113588;28;20297;-61
2023/01/05 12:55:02;;;;;;;1.15;0.47;;;;;;;;;;5113261;28;20203;-61
2023/01/05 12:57:32;;;;;;;0.80;0.40;;;;;;;;;;5113865;28;20663;-61
2023/01/05 13:00:02;;;;;;;0.60;0.40;;;;;;;;;;5114074;28;20647;-61
2023/01/05 13:02:33;;;;;;;0.47;0.40;;;;;;;;;;5114000;28;20206;-61
2023/01/05 13:05:03;;;;;;;0.63;0.50;;;;;;;;;;5114046;28;20686;-61
2023/01/05 13:07:32;;;;;;;0.57;0.50;;;;;;;;;;5114667;28;20209;-61
2023/01/05 13:10:01;;;;;;;0.68;0.50;;;;;;;;;;5114360;28;20302;-61
2023/01/05 13:12:28;;;;;;;0.40;0.40;;;;;;;;;;5115307;28;20246;-62
2023/01/05 13:15:02;;;;;;;0.93;0.60;;;;;;;;;;5113699;28;20777;-61
2023/01/05 13:17:33;;;;;;;0.63;0.47;;;;;;;;;;5114295;28;20236;-61
2023/01/05 13:20:04;;;;;;;0.70;0.40;;;;;;;;;;5113707;28;20800;-61
2023/01/05 13:22:34;;;;;;;0.60;0.30;;;;;;;;;;5113426;28;20202;-61
2023/01/05 13:25:04;;;;;;;0.47;0.47;;;;;;;;;;5113466;28;20213;-61
2023/01/05 13:27:32;;;;;;;0.30;0.30;;;;;;;;;;5113900;28;20205;-61
2023/01/05 13:30:00;;;;;;;0.63;0.57;;;;;;;;;;5113920;28;20313;-61
2023/01/05 13:32:41;;;;;;;0.60;0.40;;;;;;;;;;5113884;28;20199;-61
2023/01/05 13:35:23;;;;;;;0.88;0.50;;;;;;;;;;5113501;28;20293;-61
2023/01/05 13:38:06;;;;;;;0.43;0.40;;;;;;;;;;5113762;28;20281;-61
2023/01/05 13:40:51;;;;;;;0.50;0.40;;;;;;;;;;5112901;28;20203;-61
2023/01/05 13:43:28;;;;;;;0.47;0.40;;;;;;;;;;5112200;28;20608;-61
2023/01/05 13:46:01;;;;;;;0.75;0.40;;;;;;;;;;5113090;28;20194;-61
2023/01/05 13:48:36;;;;;;;0.57;0.40;;;;;;;;;;5113082;28;20223;-62
2023/01/05 13:51:14;;;;;;;0.68;0.30;;;;;;;;;;5113562;28;20194;-61
2023/01/05 13:53:41;;;;;;;0.40;0.35;;;;;;;;;;5113347;28;20213;-61
2023/01/05 13:56:13;;;;;;;0.40;0.40;;;;;;;;;;5113480;28;20230;-61
2023/01/05 13:58:44;;;;;;;0.30;0.30;;;;;;;;;;5113225;28;20222;-61
2023/01/05 14:01:14;;;;;;;0.43;0.43;;;;;;;;;;5113548;28;20199;-60
2023/01/05 14:03:48;;;;;;;0.43;0.40;;;;;;;;;;5113466;28;20239;-61
2023/01/05 14:06:17;;;;;;;0.40;0.40;;;;;;;;;;5113087;28;20209;-61
2023/01/05 14:08:49;;;;;;;0.38;0.30;;;;;;;;;;5113197;28;20609;-61
2023/01/05 14:11:17;;;;;;;0.45;0.40;;;;;;;;;;5113933;28;20233;-60
2023/01/05 14:13:47;;;;;;;0.50;0.50;;;;;;;;;;5113776;28;20593;-61
2023/01/05 14:16:32;;;;;;;0.70;0.40;;;;;;;;;;5113384;28;20203;-61
2023/01/05 14:19:12;;;;;;;0.73;0.30;;;;;;;;;;5113225;28;20319;-61
2023/01/05 14:21:59;;;;;;;0.43;0.40;;;;;;;;;;5112707;28;20203;-61
2023/01/05 14:24:28;;;;;;;0.35;0.35;;;;;;;;;;5114153;28;20211;-62
2023/01/05 14:27:07;;;;;;;0.50;0.35;;;;;;;;;;5115194;28;20205;-61
2023/01/05 14:29:52;;;;;;;1.02;0.40;;;;;;;;;;5117244;28;20195;-61
2023/01/05 14:32:23;;;;;;;0.43;0.40;;;;;;;;;;5100831;28;20502;-61
2023/01/05 14:34:53;;;;;;;0.45;0.30;;;;;;;;;;5117188;28;20209;-62
2023/01/05 14:37:23;;;;;;;0.63;0.50;;;;;;;;;;5115975;28;20297;-61
2023/01/05 14:39:52;;;;;;;0.57;0.40;;;;;;;;;;5117210;28;20237;-61
2023/01/05 14:42:28;;;;;;;0.40;0.40;;;;;;;;;;5116903;28;20580;-61
2023/01/05 14:44:59;;;;;;;0.50;0.30;;;;;;;;;;5117070;28;20566;-61
2023/01/05 14:47:38;;;;;;;0.30;0.30;;;;;;;;;;5117158;28;20234;-61
2023/01/05 14:50:25;;;;;;;0.50;0.40;;;;;;;;;;5115198;28;20245;-61
2023/01/05 14:52:55;;;;;;;0.47;0.45;;;;;;;;;;5116069;28;20209;-61
2023/01/05 14:55:23;;;;;;;0.40;0.40;;;;;;;;;;5115695;28;20203;-61
2023/01/05 14:57:52;;;;;;;0.50;0.35;;;;;;;;;;5116147;28;20210;-61
2023/01/05 15:00:24;;;;;;;0.63;0.63;;;;;;;;;;5115644;28;20219;-61
2023/01/05 15:02:56;;;;;;;0.50;0.50;;;;;;;;;;5116167;28;20486;-61
2023/01/05 15:05:25;;;;;;;0.47;0.30;;;;;;;;;;5115985;28;20195;-61
2023/01/05 15:07:58;;;;;;;0.32;0.30;;;;;;;;;;5116494;28;20493;-61
2023/01/05 15:10:37;;;;;;;0.32;0.30;;;;;;;;;;5115351;28;20302;-61
2023/01/05 15:13:23;;;;;;;0.50;0.40;;;;;;;;;;5115570;28;20290;-61
2023/01/05 15:15:52;;;;;;;0.35;0.35;;;;;;;;;;5115272;28;20337;-61
2023/01/05 15:18:43;;;;;;;0.77;0.47;;;;;;;;;;5116395;28;20309;-61
2023/01/05 15:21:29;;;;;;;1.02;0.50;;;;;;;;;;5116833;28;20294;-61
2023/01/05 15:24:05;;;;;;;0.65;0.40;;;;;;;;;;5115896;28;20667;-61
2023/01/05 15:26:53;;;;;;;0.68;0.40;;;;;;;;;;5116261;28;20293;-61
2023/01/05 15:29:36;;;;;;;0.30;0.30;;;;;;;;;;5074685;28;20657;-61
2023/01/05 15:32:06;;;;;;;0.40;0.30;;;;;;;;;;5116508;28;20209;-62
2023/01/05 15:34:37;;;;;;;0.43;0.40;;;;;;;;;;5116287;28;20485;-61